»·PEaware :: N117SB KMYR-KEYW

N117SB :: KMYR-KEYW

FLIGHT INFORMATION

Flight Status: Arrived
Operator: Privately registered:
United States
More flights under this callsign
Pilot: Dean S. (16265)
Aircraft: DIAMOND DA-42 TWINSTAR
(DA42)
More flights by this aircraft type
Origin: KMYR Myrtle Beach Intl
United States
Destination: KEYW Key West Intl
United States
More flights between these airports :: More routes between these airports
Route: OLDEN NANAA ECUBE
File this flight plan on PilotEdge
Remarks:
Altitude:
(Current/Filed)
6,500ft
Speed:
(Current/Filed)
170kts
Departed: 09-Nov-17 01:36 PM
Arrived: 09-Nov-17 05:34 PM
Distance/Time
Traveled:
567nm/3:58
Distance/Time
To Go:
Arrived

Flight Plot

Page will automatically refresh every two minutes.


Map Options




Map Legend


Flown Route
Filed Route
Departure Airport
Arrival Airport
Navaid (VOR, NDB)
Fix

Horizontal Profiles

Position Reports

Time Latitude Longitude Heading Altitude Ground
Speed
09-Nov-17 13:25 33.670659 -78.930746 257 28ft 0kts
09-Nov-17 13:26 33.670658 -78.930749 257 28ft 0kts
09-Nov-17 13:27 33.670657 -78.930753 257 28ft 0kts
09-Nov-17 13:28 33.670657 -78.930757 257 28ft 0kts
09-Nov-17 13:29 33.670656 -78.930761 257 28ft 0kts
09-Nov-17 13:30 33.672277 -78.929447 129 28ft 4kts
09-Nov-17 13:31 33.667816 -78.928401 161 28ft 22kts
09-Nov-17 13:32 33.667512 -78.925337 356 28ft 3kts
09-Nov-17 13:38 33.667581 -78.925345 353 28ft 0kts
09-Nov-17 13:39 33.667583 -78.925345 353 28ft 0kts
09-Nov-17 13:40 33.667585 -78.925345 353 28ft 0kts
09-Nov-17 13:41 33.677450 -78.927668 347 180ft 82kts
09-Nov-17 13:42 33.691813 -78.940976 213 1241ft 86kts
09-Nov-17 13:43 33.670251 -78.954254 207 2547ft 88kts
09-Nov-17 13:44 33.649395 -78.969537 222 3897ft 87kts
09-Nov-17 13:45 33.632166 -78.991357 227 5246ft 90kts
09-Nov-17 13:46 33.615130 -79.013864 227 6604ft 96kts
09-Nov-17 13:47 33.589454 -79.047794 227 6726ft 164kts
09-Nov-17 13:48 33.557773 -79.089596 227 6718ft 172kts
09-Nov-17 13:49 33.525440 -79.132220 227 6719ft 172kts
09-Nov-17 13:50 33.493160 -79.174727 227 6719ft 172kts
09-Nov-17 13:51 33.460848 -79.217224 227 6718ft 172kts
09-Nov-17 13:52 33.428414 -79.259832 227 6719ft 172kts
09-Nov-17 13:53 33.396067 -79.302275 227 6719ft 172kts
09-Nov-17 13:54 33.363716 -79.344671 227 6719ft 172kts
09-Nov-17 13:55 33.331231 -79.387194 227 6719ft 172kts
09-Nov-17 13:56 33.298842 -79.429541 227 6719ft 172kts
09-Nov-17 13:57 33.266324 -79.472005 227 6718ft 172kts
09-Nov-17 13:58 33.233871 -79.514266 227 6717ft 172kts
09-Nov-17 13:59 33.201362 -79.556450 227 6715ft 172kts
09-Nov-17 14:00 33.168777 -79.598817 227 6712ft 173kts
09-Nov-17 14:01 33.136291 -79.641026 227 6710ft 172kts
09-Nov-17 14:02 33.103797 -79.683200 227 6709ft 172kts
09-Nov-17 14:03 33.071179 -79.725486 227 6708ft 172kts
09-Nov-17 14:04 33.038662 -79.767590 227 6708ft 172kts
09-Nov-17 14:05 33.006133 -79.809662 227 6707ft 172kts
09-Nov-17 14:06 32.973476 -79.851849 227 6707ft 172kts
09-Nov-17 14:07 32.940917 -79.893860 227 6706ft 172kts
09-Nov-17 14:08 32.908335 -79.935852 227 6703ft 173kts
09-Nov-17 14:09 32.875618 -79.977969 227 6701ft 172kts
09-Nov-17 14:10 32.843011 -80.019895 227 6701ft 172kts
09-Nov-17 14:11 32.810286 -80.061924 227 6703ft 172kts
09-Nov-17 14:12 32.777623 -80.103728 227 6705ft 172kts
09-Nov-17 14:13 32.744963 -80.145517 227 6706ft 172kts
09-Nov-17 14:14 32.712178 -80.187454 227 6706ft 172kts
09-Nov-17 14:15 32.679492 -80.229221 227 6708ft 172kts
09-Nov-17 14:16 32.646804 -80.270956 226 6707ft 172kts
09-Nov-17 14:17 32.613974 -80.312800 226 6707ft 173kts
09-Nov-17 14:18 32.581233 -80.354491 226 6705ft 173kts
09-Nov-17 14:19 32.548483 -80.396146 226 6704ft 173kts
09-Nov-17 14:20 32.515607 -80.437917 226 6703ft 173kts
09-Nov-17 14:21 32.482820 -80.479526 226 6701ft 173kts
09-Nov-17 14:22 32.449913 -80.521239 226 6700ft 173kts
09-Nov-17 14:23 32.417102 -80.562782 226 6700ft 173kts
09-Nov-17 14:24 32.384288 -80.604281 226 6700ft 173kts
09-Nov-17 14:25 32.351344 -80.645898 226 6701ft 173kts
09-Nov-17 14:26 32.318512 -80.687344 226 6703ft 172kts
09-Nov-17 14:27 32.285655 -80.728718 226 6706ft 172kts
09-Nov-17 14:28 32.252653 -80.770216 226 6707ft 173kts
09-Nov-17 14:29 32.219732 -80.811563 226 6707ft 173kts
09-Nov-17 14:30 32.186796 -80.852883 226 6704ft 173kts
09-Nov-17 14:31 32.153717 -80.894335 226 6699ft 173kts
09-Nov-17 14:32 32.120730 -80.935625 226 6691ft 173kts
09-Nov-17 14:33 32.087731 -80.976883 226 6688ft 173kts
09-Nov-17 14:34 32.054610 -81.018244 226 6683ft 173kts
09-Nov-17 14:35 32.021578 -81.059453 226 6678ft 173kts
09-Nov-17 14:36 31.983399 -81.092499 199 6672ft 173kts
09-Nov-17 14:37 31.938033 -81.111285 199 6671ft 173kts
09-Nov-17 14:38 31.892856 -81.130570 200 6672ft 173kts
09-Nov-17 14:39 31.847564 -81.150030 200 6674ft 173kts
09-Nov-17 14:40 31.802459 -81.169411 200 6680ft 173kts
09-Nov-17 14:41 31.757317 -81.188791 200 6682ft 173kts
09-Nov-17 14:42 31.711991 -81.208230 200 6675ft 173kts
09-Nov-17 14:43 31.666794 -81.227594 200 6676ft 173kts
09-Nov-17 14:44 31.621637 -81.246921 200 6678ft 173kts
09-Nov-17 14:45 31.576325 -81.266304 200 6681ft 173kts
09-Nov-17 14:46 31.531167 -81.285584 199 6684ft 173kts
09-Nov-17 14:47 31.485851 -81.304916 199 6687ft 173kts
09-Nov-17 14:48 31.440698 -81.324162 199 6691ft 173kts
09-Nov-17 14:49 31.395528 -81.343394 199 6694ft 173kts
09-Nov-17 14:50 31.350195 -81.362676 199 6696ft 173kts
09-Nov-17 14:51 31.305013 -81.381875 199 6699ft 173kts
09-Nov-17 14:52 31.259792 -81.401069 199 6696ft 173kts
09-Nov-17 14:53 31.214423 -81.420281 199 6697ft 173kts
09-Nov-17 14:54 31.169201 -81.439460 199 6693ft 173kts
09-Nov-17 14:55 31.123961 -81.458609 199 6692ft 173kts
09-Nov-17 14:56 31.078581 -81.477794 199 6689ft 173kts
09-Nov-17 14:57 31.033345 -81.496910 199 6689ft 173kts
09-Nov-17 14:58 30.988104 -81.515987 199 6689ft 173kts
09-Nov-17 14:59 30.942707 -81.535118 199 6688ft 173kts
09-Nov-17 15:00 30.897458 -81.554170 199 6687ft 173kts
09-Nov-17 15:01 30.852104 -81.573398 199 6686ft 173kts
09-Nov-17 15:02 30.806849 -81.592419 199 6685ft 173kts
09-Nov-17 15:03 30.761571 -81.611346 199 6684ft 173kts
09-Nov-17 15:04 30.716127 -81.630316 199 6684ft 173kts
09-Nov-17 15:05 30.670827 -81.649206 199 6682ft 173kts
09-Nov-17 15:06 30.625040 -81.665181 174 6683ft 172kts
09-Nov-17 15:07 30.578531 -81.650549 163 6681ft 173kts
09-Nov-17 15:08 30.532374 -81.634769 163 6680ft 173kts
09-Nov-17 15:09 30.485989 -81.619171 163 6680ft 173kts
09-Nov-17 15:10 30.439767 -81.603682 163 6682ft 173kts
09-Nov-17 15:11 30.393554 -81.588216 163 6685ft 173kts
09-Nov-17 15:12 30.347180 -81.572708 163 6689ft 173kts
09-Nov-17 15:13 30.300935 -81.557261 163 6688ft 173kts
09-Nov-17 15:14 30.254689 -81.541837 163 6687ft 173kts
09-Nov-17 15:15 30.208274 -81.526366 163 6685ft 173kts
09-Nov-17 15:16 30.162018 -81.510963 163 6686ft 173kts
09-Nov-17 15:17 30.115761 -81.495574 163 6687ft 173kts
09-Nov-17 15:18 30.069369 -81.480156 163 6690ft 173kts
09-Nov-17 15:19 30.030835 -81.467361 163 6693ft 173kts
09-Nov-17 15:20 29.976885 -81.449464 163 6696ft 173kts
09-Nov-17 15:21 29.930472 -81.434084 163 6696ft 173kts
09-Nov-17 15:22 29.884199 -81.418765 163 6696ft 173kts
09-Nov-17 15:23 29.845478 -81.405957 163 6695ft 173kts
09-Nov-17 15:24 29.791474 -81.388112 163 6694ft 173kts
09-Nov-17 15:25 29.745185 -81.372832 163 6692ft 173kts
09-Nov-17 15:26 29.698722 -81.357509 163 6689ft 173kts
09-Nov-17 15:27 29.660104 -81.344785 163 6682ft 173kts
09-Nov-17 15:28 29.613784 -81.329536 163 6680ft 173kts
09-Nov-17 15:29 29.559613 -81.311721 163 6679ft 173kts
09-Nov-17 15:30 29.521037 -81.299047 163 6680ft 173kts
09-Nov-17 15:31 29.474734 -81.283848 163 6680ft 173kts
09-Nov-17 15:32 29.428273 -81.268611 163 6679ft 173kts
09-Nov-17 15:33 29.382441 -81.253593 163 6679ft 170kts
09-Nov-17 15:34 29.336276 -81.238464 163 6679ft 173kts
09-Nov-17 15:35 29.290002 -81.223329 163 6678ft 173kts
09-Nov-17 15:36 29.243680 -81.208195 163 6676ft 173kts
09-Nov-17 15:37 29.197199 -81.193023 163 6674ft 173kts
09-Nov-17 15:38 29.150855 -81.177910 163 6671ft 173kts
09-Nov-17 15:39 29.104540 -81.162821 163 6671ft 173kts
09-Nov-17 15:40 29.058080 -81.147699 163 6671ft 173kts
09-Nov-17 15:41 29.011734 -81.132628 163 6668ft 173kts
09-Nov-17 15:42 28.965414 -81.117583 163 6670ft 173kts
09-Nov-17 15:43 28.918924 -81.102493 163 6669ft 173kts
09-Nov-17 15:44 28.872574 -81.087461 163 6666ft 173kts
09-Nov-17 15:45 28.826217 -81.072442 163 6664ft 173kts
09-Nov-17 15:46 28.779707 -81.057388 163 6663ft 173kts
09-Nov-17 15:47 28.733361 -81.042401 163 6661ft 173kts
09-Nov-17 15:48 28.686843 -81.027362 164 6661ft 173kts
09-Nov-17 15:49 28.640469 -81.012376 163 6660ft 173kts
09-Nov-17 15:50 28.594097 -80.997445 164 6655ft 173kts
09-Nov-17 15:51 28.547579 -80.982463 164 6656ft 173kts
09-Nov-17 15:52 28.501219 -80.967540 164 6656ft 173kts
09-Nov-17 15:53 28.454858 -80.952630 164 6655ft 173kts
09-Nov-17 15:54 28.408346 -80.937686 164 6655ft 173kts
09-Nov-17 15:55 28.361974 -80.922800 164 6654ft 173kts
09-Nov-17 15:56 28.315593 -80.907920 164 6653ft 173kts
09-Nov-17 15:57 28.269045 -80.893009 164 6651ft 173kts
09-Nov-17 15:58 28.222662 -80.878161 164 6649ft 173kts
09-Nov-17 15:59 28.176073 -80.863260 164 6640ft 173kts
09-Nov-17 16:00 28.129664 -80.848430 164 6640ft 173kts
09-Nov-17 16:01 28.083665 -80.833732 164 6639ft 170kts
09-Nov-17 16:02 28.038120 -80.819196 164 6640ft 169kts
09-Nov-17 16:03 27.992806 -80.804753 164 6639ft 169kts
09-Nov-17 16:04 27.947484 -80.790322 164 6641ft 169kts
09-Nov-17 16:05 27.902023 -80.775858 164 6641ft 169kts
09-Nov-17 16:06 27.856714 -80.761456 164 6640ft 169kts
09-Nov-17 16:07 27.811380 -80.747058 164 6640ft 169kts
09-Nov-17 16:08 27.765906 -80.732628 164 6640ft 169kts
09-Nov-17 16:09 27.720593 -80.718262 164 6639ft 169kts
09-Nov-17 16:10 27.675104 -80.703852 164 6639ft 169kts
09-Nov-17 16:11 27.629767 -80.689503 164 6636ft 169kts
09-Nov-17 16:12 27.584408 -80.675159 164 6635ft 169kts
09-Nov-17 16:13 27.538924 -80.660782 164 6634ft 169kts
09-Nov-17 16:14 27.493568 -80.646480 164 6634ft 169kts
09-Nov-17 16:15 27.448214 -80.632167 164 6634ft 169kts
09-Nov-17 16:16 27.402730 -80.617832 164 6634ft 169kts
09-Nov-17 16:17 27.357388 -80.603555 164 6634ft 169kts
09-Nov-17 16:18 27.312039 -80.589276 164 6635ft 169kts
09-Nov-17 16:19 27.266536 -80.574983 164 6636ft 169kts
09-Nov-17 16:20 27.221191 -80.560742 164 6637ft 169kts
09-Nov-17 16:21 27.175849 -80.546514 164 6639ft 169kts
09-Nov-17 16:22 27.130340 -80.532245 164 6641ft 169kts
09-Nov-17 16:23 27.084989 -80.518038 164 6641ft 169kts
09-Nov-17 16:24 27.039480 -80.503793 164 6640ft 169kts
09-Nov-17 16:25 26.994108 -80.489603 164 6639ft 169kts
09-Nov-17 16:26 26.948721 -80.475420 164 6637ft 169kts
09-Nov-17 16:27 26.903175 -80.461200 164 6635ft 169kts
09-Nov-17 16:28 26.857774 -80.447036 164 6631ft 169kts
09-Nov-17 16:29 26.812359 -80.432888 164 6628ft 169kts
09-Nov-17 16:30 26.766794 -80.418690 164 6625ft 169kts
09-Nov-17 16:31 26.721393 -80.404561 164 6622ft 169kts
09-Nov-17 16:32 26.675835 -80.390396 164 6618ft 169kts
09-Nov-17 16:33 26.630408 -80.376283 164 6614ft 169kts
09-Nov-17 16:34 26.585020 -80.362194 164 6615ft 169kts
09-Nov-17 16:35 26.539478 -80.348069 164 6615ft 169kts
09-Nov-17 16:36 26.494086 -80.334009 164 6614ft 169kts
09-Nov-17 16:37 26.448028 -80.319769 164 6178ft 174kts
09-Nov-17 16:38 26.401171 -80.305275 164 5577ft 174kts
09-Nov-17 16:39 26.354682 -80.290906 164 4978ft 173kts
09-Nov-17 16:40 26.308231 -80.277713 164 4379ft 172kts
09-Nov-17 16:41 26.262103 -80.263754 164 3777ft 170kts
09-Nov-17 16:42 26.218099 -80.250216 164 3597ft 156kts
09-Nov-17 16:43 26.176788 -80.237494 164 3598ft 153kts
09-Nov-17 16:44 26.135689 -80.224845 164 3598ft 152kts
09-Nov-17 16:45 26.097381 -80.231118 222 3602ft 152kts
09-Nov-17 16:46 26.066405 -80.263504 222 3606ft 152kts
09-Nov-17 16:47 26.035048 -80.295289 222 3605ft 152kts
09-Nov-17 16:48 26.003609 -80.326969 222 3605ft 152kts
09-Nov-17 16:49 25.972034 -80.358743 221 3603ft 152kts
09-Nov-17 16:50 25.940555 -80.390395 221 3602ft 152kts
09-Nov-17 16:51 25.909063 -80.422036 221 3598ft 153kts
09-Nov-17 16:52 25.877433 -80.453792 221 3595ft 152kts
09-Nov-17 16:53 25.845937 -80.485389 221 3594ft 152kts
09-Nov-17 16:54 25.814425 -80.516979 221 3594ft 152kts
09-Nov-17 16:55 25.782790 -80.548669 221 3590ft 153kts
09-Nov-17 16:56 25.751255 -80.580234 221 3590ft 152kts
09-Nov-17 16:57 25.719619 -80.611878 221 3590ft 152kts
09-Nov-17 16:58 25.688088 -80.643391 221 3590ft 152kts
09-Nov-17 16:59 25.656548 -80.674892 221 3589ft 152kts
09-Nov-17 17:00 25.625606 -80.705755 221 3589ft 147kts
09-Nov-17 17:01 25.595156 -80.736118 221 3589ft 147kts
09-Nov-17 17:02 25.564737 -80.766433 221 3589ft 147kts
09-Nov-17 17:03 25.534219 -80.796824 221 3589ft 147kts
09-Nov-17 17:04 25.503788 -80.827108 221 3588ft 147kts
09-Nov-17 17:05 25.473337 -80.857355 221 3588ft 147kts
09-Nov-17 17:06 25.442767 -80.887694 221 3586ft 147kts
09-Nov-17 17:07 25.412310 -80.917925 221 3585ft 147kts
09-Nov-17 17:08 25.381845 -80.948144 221 3584ft 147kts
09-Nov-17 17:09 25.351270 -80.978451 221 3583ft 147kts
09-Nov-17 17:10 25.320789 -81.008644 221 3582ft 147kts
09-Nov-17 17:11 25.290206 -81.038917 221 3581ft 147kts
09-Nov-17 17:12 25.259717 -81.069075 221 3581ft 147kts
09-Nov-17 17:13 25.229220 -81.099220 221 3580ft 147kts
09-Nov-17 17:14 25.198607 -81.129458 221 3579ft 147kts
09-Nov-17 17:15 25.168095 -81.159576 221 3578ft 147kts
09-Nov-17 17:16 25.137577 -81.189678 221 3578ft 147kts
09-Nov-17 17:17 25.106944 -81.219872 221 3577ft 147kts
09-Nov-17 17:18 25.076412 -81.249946 221 3577ft 147kts
09-Nov-17 17:19 25.045773 -81.280105 221 3576ft 147kts
09-Nov-17 17:20 25.015220 -81.310157 221 3576ft 147kts
09-Nov-17 17:21 24.984671 -81.340186 221 3576ft 147kts
09-Nov-17 17:22 24.954016 -81.370296 221 3576ft 147kts
09-Nov-17 17:23 24.923443 -81.400306 221 3576ft 147kts
09-Nov-17 17:24 24.892878 -81.430288 221 3576ft 147kts
09-Nov-17 17:25 24.862203 -81.460356 221 3577ft 147kts
09-Nov-17 17:26 24.831650 -81.490364 221 3577ft 147kts
09-Nov-17 17:27 24.801067 -81.520309 221 3578ft 147kts
09-Nov-17 17:28 24.770346 -81.550314 221 3578ft 147kts
09-Nov-17 17:29 24.739719 -81.580202 221 3579ft 147kts
09-Nov-17 17:30 24.709088 -81.610073 221 3578ft 147kts
09-Nov-17 17:31 24.678339 -81.640039 221 3579ft 147kts
09-Nov-17 17:32 24.640485 -81.651974 187 3578ft 144kts
09-Nov-17 17:33 24.601190 -81.659690 191 3579ft 142kts
09-Nov-17 17:34 24.562832 -81.669853 217 3570ft 142kts
09-Nov-17 17:35 24.554760 -81.710960 259 3573ft 132kts
09-Nov-17 17:36 24.566483 -81.743984 294 2663ft 87kts
09-Nov-17 17:37 24.565968 -81.776921 252 916ft 113kts
09-Nov-17 17:38 24.555926 -81.768422 87 76ft 92kts
09-Nov-17 17:39 24.556050 -81.758998 92 6ft 0kts
09-Nov-17 17:40 24.556050 -81.758998 92 6ft 0kts
09-Nov-17 17:41 24.556050 -81.758998 92 6ft 0kts
09-Nov-17 17:42 24.556050 -81.758998 92 6ft 0kts
09-Nov-17 17:43 24.556050 -81.758998 92 6ft 0kts
09-Nov-17 17:44 24.556050 -81.758998 92 6ft 0kts
09-Nov-17 17:45 24.556050 -81.758998 92 6ft 0kts
09-Nov-17 17:46 24.556050 -81.758998 92 6ft 0kts
09-Nov-17 17:47 24.556050 -81.758998 92 6ft 0kts
09-Nov-17 17:48 24.556050 -81.758998 92 6ft 0kts
09-Nov-17 17:49 24.556050 -81.758998 92 6ft 0kts
09-Nov-17 17:50 24.556050 -81.758998 92 6ft 0kts
09-Nov-17 17:51 24.556050 -81.758998 92 6ft 0kts
09-Nov-17 17:52 24.556050 -81.758998 92 6ft 0kts
09-Nov-17 17:53 24.556050 -81.758998 92 6ft 0kts

Navigation Log

Ident Type
Flight plan parsing failed, navigation log unavailable